createdAt,value
2017-09-01T00:01:51.872Z,15.80
2017-09-01T00:04:20.203Z,15.70
2017-09-01T00:06:48.509Z,15.70
2017-09-01T00:09:16.850Z,15.60
2017-09-01T00:11:45.206Z,15.60
2017-09-01T00:14:13.570Z,15.50
2017-09-01T00:16:41.920Z,15.50
2017-09-01T00:19:10.602Z,15.40
2017-09-01T00:21:38.955Z,15.40
2017-09-01T00:24:07.265Z,15.40
2017-09-01T00:26:35.689Z,15.40
2017-09-01T00:29:03.989Z,15.30
2017-09-01T00:31:32.338Z,15.30
2017-09-01T00:34:00.688Z,15.30
2017-09-01T00:36:29.009Z,15.20
2017-09-01T00:38:57.316Z,15.20
2017-09-01T00:41:25.647Z,15.20
2017-09-01T00:43:53.975Z,15.10
2017-09-01T00:46:22.333Z,15.10
2017-09-01T00:48:50.658Z,15.10
2017-09-01T00:51:18.992Z,15.10
2017-09-01T00:53:47.314Z,15.00
2017-09-01T00:56:15.636Z,15.00
2017-09-01T00:58:43.946Z,15.10
2017-09-01T01:01:12.245Z,15.00
2017-09-01T01:03:40.568Z,15.00
2017-09-01T01:06:08.906Z,15.00
2017-09-01T01:08:37.204Z,15.00
2017-09-01T01:11:05.602Z,15.00
2017-09-01T01:13:33.938Z,15.00
2017-09-01T01:16:02.319Z,15.00
2017-09-01T01:18:30.645Z,14.90
2017-09-01T01:20:59.185Z,14.90
2017-09-01T01:23:27.489Z,14.80
2017-09-01T01:25:55.785Z,14.80
2017-09-01T01:28:24.126Z,14.80
2017-09-01T01:30:52.434Z,14.80
2017-09-01T01:33:20.735Z,14.80
2017-09-01T01:35:49.091Z,14.70
2017-09-01T01:38:17.396Z,14.70
2017-09-01T01:40:45.809Z,14.70
2017-09-01T01:43:14.250Z,14.70
2017-09-01T01:45:42.564Z,14.70
2017-09-01T01:48:11.777Z,14.70
2017-09-01T01:50:40.228Z,14.70
2017-09-01T01:53:08.530Z,14.70
2017-09-01T01:55:36.862Z,14.70
2017-09-01T01:58:05.170Z,14.70
2017-09-01T02:00:33.516Z,14.60
2017-09-01T02:03:01.820Z,14.60
2017-09-01T02:05:30.125Z,14.60
2017-09-01T02:07:59.266Z,14.60
2017-09-01T02:10:27.765Z,14.60
2017-09-01T02:12:56.153Z,14.60
2017-09-01T02:15:24.573Z,14.50
2017-09-01T02:17:52.976Z,14.50
2017-09-01T02:20:21.337Z,14.50
2017-09-01T02:22:49.641Z,14.40
2017-09-01T02:25:17.953Z,14.40
2017-09-01T02:27:46.287Z,14.40
2017-09-01T02:30:14.596Z,14.40
2017-09-01T02:32:43.025Z,14.40
2017-09-01T02:35:11.399Z,14.40
2017-09-01T02:37:39.737Z,14.30
2017-09-01T02:40:08.069Z,14.30
2017-09-01T02:42:36.386Z,14.30
2017-09-01T02:45:04.726Z,14.30
2017-09-01T02:47:33.079Z,14.30
2017-09-01T02:50:01.413Z,14.30
2017-09-01T02:52:29.771Z,14.30
2017-09-01T02:54:58.115Z,14.30
2017-09-01T02:57:26.424Z,14.20
2017-09-01T02:59:55.710Z,14.20
2017-09-01T03:02:24.068Z,14.20
2017-09-01T03:04:52.413Z,14.20
2017-09-01T03:07:20.711Z,14.10
2017-09-01T03:09:49.017Z,14.10
2017-09-01T03:12:17.349Z,14.20
2017-09-01T03:14:45.675Z,14.20
2017-09-01T03:17:14.008Z,14.20
2017-09-01T03:19:42.313Z,14.10
2017-09-01T03:22:10.649Z,14.10
2017-09-01T03:24:38.952Z,14.10
2017-09-01T03:27:07.293Z,14.10
2017-09-01T03:29:35.638Z,14.00
2017-09-01T03:32:03.942Z,13.90
2017-09-01T03:34:32.289Z,13.90
2017-09-01T03:37:00.594Z,13.90
2017-09-01T03:39:28.903Z,13.90
2017-09-01T03:41:57.274Z,13.90
2017-09-01T03:44:25.705Z,13.90
2017-09-01T03:46:54.007Z,13.90
2017-09-01T03:49:22.363Z,13.90
2017-09-01T03:51:50.657Z,13.80
2017-09-01T03:54:18.963Z,13.80
2017-09-01T03:56:47.338Z,13.80
2017-09-01T03:59:15.691Z,13.80
2017-09-01T04:01:43.992Z,13.70
2017-09-01T04:04:12.356Z,13.70
2017-09-01T04:06:40.690Z,13.70
2017-09-01T04:09:09.047Z,13.70
2017-09-01T04:11:37.412Z,13.70
2017-09-01T04:14:05.723Z,13.80
2017-09-01T04:22:37.746Z,13.70
2017-09-01T04:25:06.058Z,13.60
2017-09-01T04:27:34.406Z,13.70
2017-09-01T04:30:02.740Z,13.60
2017-09-01T04:32:31.047Z,13.60
2017-09-01T04:34:59.389Z,13.60
2017-09-01T04:37:27.722Z,13.60
2017-09-01T04:39:56.069Z,13.60
2017-09-01T04:42:24.514Z,13.60
2017-09-01T04:44:52.950Z,13.60
2017-09-01T04:47:21.260Z,13.60
2017-09-01T04:49:49.694Z,13.60
2017-09-01T04:52:18.040Z,13.60
2017-09-01T04:54:46.345Z,13.60
2017-09-01T04:57:14.660Z,13.60
2017-09-01T04:59:43.030Z,13.60
2017-09-01T05:02:11.350Z,13.50
2017-09-01T05:04:39.706Z,13.50
2017-09-01T05:07:08.041Z,13.50
2017-09-01T05:09:36.360Z,13.50
2017-09-01T05:12:04.767Z,13.50
2017-09-01T05:14:33.090Z,13.40
2017-09-01T05:17:01.451Z,13.40
2017-09-01T05:19:29.779Z,13.40
2017-09-01T05:21:58.161Z,13.40
2017-09-01T05:24:26.504Z,13.50
2017-09-01T05:26:54.833Z,13.50
2017-09-01T05:29:23.138Z,13.50
2017-09-01T05:31:51.496Z,13.50
2017-09-01T05:34:19.813Z,13.50
2017-09-01T05:56:36.167Z,14.50
2017-09-01T05:59:04.494Z,14.80
2017-09-01T06:01:32.821Z,15.00
2017-09-01T06:04:01.170Z,15.10
2017-09-01T06:06:29.491Z,15.30
2017-09-01T06:08:58.741Z,15.50
2017-09-01T06:11:28.032Z,16.00
2017-09-01T06:13:56.358Z,16.50
2017-09-01T06:16:24.672Z,17.00
2017-09-01T06:18:53.007Z,17.20
2017-09-01T06:21:21.333Z,17.30
2017-09-01T06:23:49.675Z,17.30
2017-09-01T06:26:17.989Z,17.20
2017-09-01T06:28:46.289Z,17.20
2017-09-01T06:31:14.653Z,17.20
2017-09-01T06:33:42.966Z,17.20
2017-09-01T06:36:11.293Z,17.00
2017-09-01T06:38:39.650Z,16.80
2017-09-01T06:41:08.010Z,16.70
2017-09-01T06:43:36.370Z,16.70
2017-09-01T06:46:04.665Z,16.80
2017-09-01T06:48:33.009Z,17.00
2017-09-01T06:51:01.346Z,17.50
2017-09-01T06:53:29.667Z,18.10
2017-09-01T06:55:58.161Z,18.90
2017-09-01T06:58:26.452Z,19.60
2017-09-01T07:00:54.746Z,20.10
2017-09-01T07:03:23.083Z,20.50
2017-09-01T07:05:51.415Z,20.70
2017-09-01T07:08:19.875Z,20.90
2017-09-01T07:10:48.175Z,20.90
2017-09-01T07:13:16.525Z,21.00
2017-09-01T07:15:44.858Z,20.90
2017-09-01T07:18:13.158Z,20.90
2017-09-01T07:20:41.493Z,20.90
2017-09-01T07:23:09.821Z,20.90
2017-09-01T07:25:38.155Z,20.90
2017-09-01T07:28:06.460Z,20.80
2017-09-01T07:30:34.795Z,20.70
2017-09-01T07:33:03.133Z,20.40
2017-09-01T07:35:31.453Z,20.40
2017-09-01T07:37:59.780Z,20.40
2017-09-01T07:40:28.178Z,20.40
2017-09-01T07:42:56.489Z,20.40
2017-09-01T07:45:24.801Z,20.50
2017-09-01T07:47:53.148Z,20.70
2017-09-01T07:50:21.450Z,21.00
2017-09-01T07:52:49.747Z,21.10
2017-09-01T07:55:18.092Z,21.20
2017-09-01T07:57:46.405Z,21.30
2017-09-01T08:00:14.743Z,21.40
2017-09-01T08:02:43.050Z,21.60
2017-09-01T08:05:12.209Z,21.80
2017-09-01T08:07:40.572Z,21.90
2017-09-01T08:10:08.911Z,21.90
2017-09-01T08:12:37.211Z,21.90
2017-09-01T08:15:05.554Z,21.80
2017-09-01T08:17:33.864Z,21.90
2017-09-01T08:20:02.198Z,21.70
2017-09-01T08:22:30.525Z,21.50
2017-09-01T08:24:58.868Z,21.50
2017-09-01T08:27:27.205Z,21.40
2017-09-01T08:30:14.850Z,21.30
2017-09-01T08:32:43.182Z,21.20
2017-09-01T08:35:11.511Z,21.10
2017-09-01T08:37:39.853Z,21.10
2017-09-01T08:40:08.218Z,21.20
2017-09-01T08:42:36.579Z,21.20
2017-09-01T08:45:04.888Z,21.20
2017-09-01T08:47:33.227Z,21.20
2017-09-01T08:50:01.554Z,21.10
2017-09-01T08:52:29.921Z,21.10
2017-09-01T08:54:58.247Z,21.30
2017-09-01T08:57:26.558Z,21.30
2017-09-01T08:59:54.901Z,21.40
2017-09-01T09:02:23.224Z,21.40
2017-09-01T09:04:51.599Z,21.40
2017-09-01T09:07:19.954Z,21.50
2017-09-01T09:09:48.333Z,21.60
2017-09-01T09:12:16.636Z,21.60
2017-09-01T09:14:44.941Z,21.80
2017-09-01T09:17:13.276Z,21.90
2017-09-01T09:19:41.581Z,21.80
2017-09-01T09:22:10.013Z,21.60
2017-09-01T09:24:39.357Z,21.70
2017-09-01T09:27:07.691Z,21.90
2017-09-01T09:29:36.032Z,22.10
2017-09-01T09:32:05.000Z,22.30
2017-09-01T09:34:33.301Z,22.40
2017-09-01T09:37:01.609Z,22.70
2017-09-01T09:39:29.977Z,22.70
2017-09-01T09:41:58.317Z,22.80
2017-09-01T09:44:26.625Z,22.80
2017-09-01T09:46:54.955Z,22.80
2017-09-01T09:49:23.267Z,22.90
2017-09-01T09:51:51.610Z,23.20
2017-09-01T09:54:19.918Z,23.30
2017-09-01T09:56:48.397Z,23.40
2017-09-01T09:59:16.737Z,23.50
2017-09-01T10:01:45.066Z,23.60
2017-09-01T10:04:13.568Z,23.90
2017-09-01T10:06:41.873Z,24.20
2017-09-01T10:09:10.177Z,24.30
2017-09-01T10:11:38.507Z,24.50
2017-09-01T10:14:06.824Z,24.50
2017-09-01T10:16:35.245Z,24.40
2017-09-01T10:19:03.572Z,24.30
2017-09-01T10:21:31.900Z,24.30
2017-09-01T10:24:00.190Z,24.40
2017-09-01T10:26:28.567Z,24.50
2017-09-01T10:28:56.865Z,24.30
2017-09-01T10:31:25.183Z,24.00
2017-09-01T10:33:53.524Z,23.80
2017-09-01T10:36:21.825Z,23.50
2017-09-01T10:38:50.128Z,23.30
2017-09-01T10:41:18.471Z,23.00
2017-09-01T10:43:46.776Z,22.90
2017-09-01T10:46:15.124Z,23.10
2017-09-01T10:49:01.181Z,23.10
2017-09-01T10:51:47.169Z,23.10
2017-09-01T10:54:33.133Z,23.20
2017-09-01T10:57:19.102Z,23.20
2017-09-01T10:59:47.410Z,23.20
2017-09-01T11:02:15.751Z,23.20
2017-09-01T11:04:44.055Z,23.30
2017-09-01T11:07:12.362Z,23.40
2017-09-01T11:09:40.710Z,23.50
2017-09-01T11:12:09.855Z,23.60
2017-09-01T11:14:38.605Z,23.80
2017-09-01T11:17:06.912Z,23.80
2017-09-01T11:19:40.805Z,24.10
2017-09-01T11:22:14.777Z,24.20
2017-09-01T11:24:43.093Z,24.30
2017-09-01T11:27:11.462Z,24.50
2017-09-01T11:29:40.746Z,24.50
2017-09-01T11:32:09.831Z,24.40
2017-09-01T11:34:38.714Z,24.40
2017-09-01T11:37:08.585Z,24.30
2017-09-01T11:39:36.916Z,24.30
2017-09-01T11:42:05.246Z,24.30
2017-09-01T11:44:33.586Z,24.00
2017-09-01T11:47:01.948Z,23.90
2017-09-01T11:49:30.278Z,23.80
2017-09-01T11:51:58.619Z,23.70
2017-09-01T11:54:26.961Z,23.80
2017-09-01T11:56:55.267Z,23.90
2017-09-01T11:59:23.615Z,24.00
2017-09-01T12:01:51.950Z,23.80
2017-09-01T12:04:20.259Z,23.90
2017-09-01T12:06:48.593Z,23.80
2017-09-01T12:09:16.944Z,23.80
2017-09-01T12:11:45.293Z,23.80
2017-09-01T12:14:13.636Z,23.80
2017-09-01T12:16:41.973Z,23.80
2017-09-01T12:19:10.445Z,23.80
2017-09-01T12:21:38.747Z,23.80
2017-09-01T12:24:07.121Z,23.80
2017-09-01T12:26:35.437Z,23.80
2017-09-01T12:29:03.737Z,23.80
2017-09-01T12:31:32.102Z,23.80
2017-09-01T12:34:00.423Z,23.70
2017-09-01T12:36:28.836Z,23.80
2017-09-01T12:38:57.141Z,23.70
2017-09-01T12:41:25.433Z,23.60
2017-09-01T12:43:53.792Z,23.70
2017-09-01T12:46:22.093Z,23.70
2017-09-01T12:48:50.409Z,23.60
2017-09-01T12:51:18.740Z,23.60
2017-09-01T12:53:47.051Z,23.60
2017-09-01T12:56:15.411Z,23.80
2017-09-01T12:58:43.727Z,23.80
2017-09-01T13:01:12.037Z,23.40
2017-09-01T13:03:40.391Z,23.10
2017-09-01T13:06:08.694Z,23.00
2017-09-01T13:08:37.022Z,23.00
2017-09-01T13:11:05.364Z,23.00
2017-09-01T13:13:33.676Z,23.10
2017-09-01T13:16:02.001Z,23.20
2017-09-01T13:18:30.324Z,23.00
2017-09-01T13:20:58.639Z,23.00
2017-09-01T13:23:26.988Z,23.00
2017-09-01T13:25:55.285Z,23.00
2017-09-01T13:28:23.587Z,23.00
2017-09-01T13:30:51.918Z,22.70
2017-09-01T13:33:20.227Z,22.80
2017-09-01T13:35:48.572Z,22.80
2017-09-01T13:38:16.937Z,22.90
2017-09-01T13:40:45.265Z,23.00
2017-09-01T13:43:13.612Z,23.20
2017-09-01T13:45:41.959Z,23.20
2017-09-01T13:48:10.965Z,23.10
2017-09-01T13:50:40.273Z,23.20
2017-09-01T13:53:09.114Z,23.30
2017-09-01T13:55:37.772Z,23.20
2017-09-01T13:58:06.087Z,23.10
2017-09-01T14:00:34.392Z,22.90
2017-09-01T14:03:02.718Z,23.00
2017-09-01T14:05:31.037Z,23.10
2017-09-01T14:07:59.382Z,23.40
2017-09-01T14:10:27.714Z,23.80
2017-09-01T14:12:56.044Z,24.10
2017-09-01T14:15:24.347Z,24.10
2017-09-01T14:17:52.674Z,24.20
2017-09-01T14:20:20.970Z,24.50
2017-09-01T14:22:49.296Z,24.70
2017-09-01T14:25:17.603Z,24.90
2017-09-01T14:27:45.946Z,25.00
2017-09-01T14:30:14.247Z,25.60
2017-09-01T14:32:42.547Z,25.70
2017-09-01T14:35:10.899Z,25.80
2017-09-01T14:37:39.219Z,26.10
2017-09-01T14:40:07.550Z,25.80
2017-09-01T14:42:36.005Z,25.50
2017-09-01T14:45:04.481Z,25.00
2017-09-01T14:47:32.845Z,24.70
2017-09-01T14:50:01.146Z,24.50
2017-09-01T14:52:29.439Z,24.30
2017-09-01T14:54:57.773Z,24.10
2017-09-01T14:57:26.876Z,24.10
2017-09-01T14:59:55.221Z,24.00
2017-09-01T15:02:23.539Z,23.80
2017-09-01T15:04:51.841Z,23.60
2017-09-01T15:07:20.466Z,23.30
2017-09-01T15:09:48.776Z,23.10
2017-09-01T15:12:17.094Z,23.00
2017-09-01T15:14:45.427Z,22.70
2017-09-01T15:17:14.048Z,22.50
2017-09-01T15:19:42.388Z,22.20
2017-09-01T15:22:10.722Z,22.00
2017-09-01T15:24:39.031Z,21.80
2017-09-01T15:27:07.391Z,21.70
2017-09-01T15:29:35.729Z,21.60
2017-09-01T15:32:04.771Z,21.50
2017-09-01T15:34:33.094Z,21.50
2017-09-01T15:37:01.781Z,21.50
2017-09-01T15:39:30.105Z,21.40
2017-09-01T15:41:58.426Z,21.40
2017-09-01T15:44:26.758Z,21.50
2017-09-01T15:46:55.091Z,21.70
2017-09-01T15:49:23.417Z,21.90
2017-09-01T15:51:51.715Z,22.00
2017-09-01T15:54:20.080Z,21.80
2017-09-01T15:56:48.392Z,21.60
2017-09-01T15:59:17.355Z,21.60
2017-09-01T16:01:46.311Z,21.70
2017-09-01T16:04:15.306Z,21.80
2017-09-01T16:06:43.703Z,21.70
2017-09-01T16:09:12.094Z,21.60
2017-09-01T16:11:40.424Z,21.50
2017-09-01T16:14:08.796Z,21.50
2017-09-01T16:16:37.093Z,21.30
2017-09-01T16:19:05.394Z,21.10
2017-09-01T16:21:33.787Z,21.10
2017-09-01T16:24:02.110Z,20.90
2017-09-01T16:26:30.414Z,20.90
2017-09-01T16:28:58.741Z,20.70
2017-09-01T16:31:27.078Z,20.60
2017-09-01T16:33:55.592Z,20.50
2017-09-01T16:36:23.945Z,20.40
2017-09-01T16:38:52.464Z,20.50
2017-09-01T16:41:20.784Z,20.60
2017-09-01T16:43:49.247Z,20.60
2017-09-01T16:46:17.548Z,20.60
2017-09-01T16:48:46.146Z,20.50
2017-09-01T16:51:14.473Z,20.50
2017-09-01T16:53:42.830Z,20.50
2017-09-01T16:56:11.172Z,20.50
2017-09-01T16:58:40.635Z,20.40
2017-09-01T17:01:08.983Z,20.40
2017-09-01T17:03:37.291Z,20.40
2017-09-01T17:06:05.594Z,20.30
2017-09-01T17:08:34.100Z,20.30
2017-09-01T17:11:02.436Z,20.20
2017-09-01T17:13:30.784Z,20.20
2017-09-01T17:15:59.129Z,20.10
2017-09-01T17:18:27.426Z,20.10
2017-09-01T17:20:55.815Z,20.10
2017-09-01T17:23:24.245Z,20.00
2017-09-01T17:25:52.583Z,19.90
2017-09-01T17:28:20.886Z,19.80
2017-09-01T17:30:49.327Z,19.70
2017-09-01T17:33:19.475Z,19.70
2017-09-01T17:35:48.040Z,19.60
2017-09-01T17:38:16.356Z,19.50
2017-09-01T17:40:44.802Z,19.40
2017-09-01T17:43:13.206Z,19.20
2017-09-01T17:45:41.573Z,19.20
2017-09-01T17:48:09.890Z,19.10
2017-09-01T17:50:38.226Z,19.00
2017-09-01T17:53:06.717Z,19.00
2017-09-01T17:55:35.416Z,19.00
2017-09-01T17:58:03.769Z,19.00
2017-09-01T18:00:32.155Z,18.90
2017-09-01T18:03:00.675Z,18.90
2017-09-01T18:05:29.082Z,18.90
2017-09-01T18:07:57.395Z,18.80
2017-09-01T18:10:25.713Z,18.70
2017-09-01T18:12:54.229Z,18.70
2017-09-01T18:15:22.606Z,18.70
2017-09-01T18:17:50.955Z,18.60
2017-09-01T18:20:19.266Z,18.60
2017-09-01T18:22:47.565Z,18.50
2017-09-01T18:25:15.976Z,18.40
2017-09-01T18:27:44.314Z,18.40
2017-09-01T18:30:12.638Z,18.40
2017-09-01T18:32:40.954Z,18.40
2017-09-01T18:35:09.281Z,18.40
2017-09-01T18:37:37.605Z,18.40
2017-09-01T18:40:05.902Z,18.40
2017-09-01T18:42:34.271Z,18.40
2017-09-01T18:45:02.579Z,18.40
2017-09-01T18:47:30.887Z,18.40
2017-09-01T18:49:59.273Z,18.30
2017-09-01T18:52:27.616Z,18.30
2017-09-01T18:54:55.970Z,18.30
2017-09-01T18:57:24.297Z,18.30
2017-09-01T18:59:52.657Z,18.30
2017-09-01T19:02:20.953Z,18.40
2017-09-01T19:04:49.284Z,18.40
2017-09-01T19:07:17.615Z,18.40
2017-09-01T19:09:45.911Z,18.40
2017-09-01T19:12:14.247Z,18.40
2017-09-01T19:14:42.593Z,18.40
2017-09-01T19:17:10.959Z,18.50
2017-09-01T19:19:39.278Z,18.50
2017-09-01T19:22:07.710Z,18.50
2017-09-01T19:24:36.022Z,18.40
2017-09-01T19:27:04.361Z,18.40
2017-09-01T19:29:32.806Z,18.40
2017-09-01T19:32:01.127Z,18.30
2017-09-01T19:34:30.136Z,18.20
2017-09-01T19:36:58.546Z,18.20
2017-09-01T19:39:26.850Z,18.20
2017-09-01T19:41:55.181Z,18.10
2017-09-01T19:44:23.516Z,18.00
2017-09-01T19:46:51.817Z,17.90
2017-09-01T19:49:20.379Z,17.90
2017-09-01T19:51:48.698Z,17.80
2017-09-01T19:54:17.005Z,17.80
2017-09-01T19:56:45.376Z,17.80
2017-09-01T19:59:13.695Z,17.80
2017-09-01T20:01:42.003Z,17.80
2017-09-01T20:04:10.354Z,17.80
2017-09-01T20:06:38.725Z,17.70
2017-09-01T20:09:07.534Z,17.70
2017-09-01T20:11:35.884Z,17.60
2017-09-01T20:14:04.221Z,17.60
2017-09-01T20:16:33.692Z,17.60
2017-09-01T20:19:01.991Z,17.60
2017-09-01T20:21:30.319Z,17.50
2017-09-01T20:23:59.567Z,17.50
2017-09-01T20:26:28.951Z,17.50
2017-09-01T20:28:57.434Z,17.50
2017-09-01T20:31:25.726Z,17.40
2017-09-01T20:33:54.037Z,17.40
2017-09-01T20:36:22.382Z,17.30
2017-09-01T20:38:50.684Z,17.30
2017-09-01T20:41:19.153Z,17.20
2017-09-01T20:43:47.476Z,17.20
2017-09-01T20:46:15.768Z,17.20
2017-09-01T20:48:44.778Z,17.20
2017-09-01T20:51:13.133Z,17.20
2017-09-01T20:53:41.437Z,17.30
2017-09-01T20:56:09.745Z,17.30
2017-09-01T20:58:38.079Z,17.30
2017-09-01T21:01:06.397Z,17.30
2017-09-01T21:03:34.758Z,17.20
2017-09-01T21:06:03.242Z,17.20
2017-09-01T21:08:31.579Z,17.20
2017-09-01T21:11:00.602Z,17.20
2017-09-01T21:13:29.887Z,17.10
2017-09-01T21:15:58.557Z,17.10
2017-09-01T21:18:26.899Z,17.00
2017-09-01T21:20:55.214Z,17.00
2017-09-01T21:23:23.554Z,16.90
2017-09-01T21:25:51.865Z,16.90
2017-09-01T21:28:20.202Z,16.90
2017-09-01T21:30:48.508Z,17.00
2017-09-01T21:33:16.823Z,17.00
2017-09-01T21:35:45.443Z,17.00
2017-09-01T21:38:13.732Z,17.00
2017-09-01T21:40:42.052Z,17.00
2017-09-01T21:43:10.378Z,17.10
2017-09-01T21:45:38.701Z,17.00
2017-09-01T21:48:07.170Z,17.00
2017-09-01T21:50:35.509Z,17.00
2017-09-01T21:53:04.332Z,16.90
2017-09-01T21:55:32.674Z,16.90
2017-09-01T21:58:01.018Z,16.90
2017-09-01T22:00:29.325Z,16.80
2017-09-01T22:02:57.684Z,16.80
2017-09-01T22:05:26.211Z,16.90
2017-09-01T22:07:54.556Z,16.90
2017-09-01T22:10:23.819Z,16.90
2017-09-01T22:12:52.242Z,16.80
2017-09-01T22:15:20.571Z,16.80
2017-09-01T22:17:48.876Z,16.80
2017-09-01T22:20:17.450Z,16.80
2017-09-01T22:22:45.769Z,16.70
2017-09-01T22:25:14.069Z,16.70
2017-09-01T22:27:42.417Z,16.60
2017-09-01T22:30:10.754Z,16.60
2017-09-01T22:32:39.054Z,16.60
2017-09-01T22:35:07.849Z,16.60
2017-09-01T22:37:36.172Z,16.60
2017-09-01T22:40:04.783Z,16.60
2017-09-01T22:42:33.444Z,16.60
2017-09-01T22:45:01.901Z,16.50
2017-09-01T22:47:33.100Z,16.50
2017-09-01T22:50:01.467Z,16.60
2017-09-01T22:52:29.789Z,16.60
2017-09-01T22:54:58.142Z,16.60
2017-09-01T22:57:26.491Z,16.60
2017-09-01T22:59:54.793Z,16.60
2017-09-01T23:02:23.130Z,16.60
2017-09-01T23:04:51.635Z,16.50
2017-09-01T23:07:19.928Z,16.50
2017-09-01T23:09:48.462Z,16.50
2017-09-01T23:12:16.758Z,16.50
2017-09-01T23:14:45.098Z,16.40
2017-09-01T23:17:13.425Z,16.40
2017-09-01T23:19:41.862Z,16.30
2017-09-01T23:22:10.202Z,16.30
2017-09-01T23:24:38.604Z,16.20
2017-09-01T23:27:06.956Z,16.20
2017-09-01T23:29:35.262Z,16.20
2017-09-01T23:32:03.592Z,16.20
2017-09-01T23:34:32.283Z,16.20
2017-09-01T23:37:00.627Z,16.10
2017-09-01T23:39:29.072Z,16.20
2017-09-01T23:41:57.434Z,16.20
2017-09-01T23:44:25.769Z,16.20
2017-09-01T23:46:54.098Z,16.20
2017-09-01T23:49:22.466Z,16.30
2017-09-01T23:51:50.813Z,16.20
2017-09-01T23:54:19.138Z,16.20
2017-09-01T23:56:47.469Z,16.20
2017-09-01T23:59:15.797Z,16.20
